Newcastle, WY

2:00 PM MDT on September 01, 2014 (GMT -0600)
Mondell | Change Station
CLOSE
Current Station
Airport
Location: Newcastle,
Elevation: 4173 ft
Nearby Weather Stations

Elev 4173 ft 43.89 °N, 104.32 °W | Updated 5 minutes ago

Scattered Clouds
Scattered Clouds
55 °F
Feels Like 55 °F
N
12
Wind Variable Wind from North
Gusts 20 mph

Today
High -- | Low -- °F
--% Chance of Precip.
Yesterday
High -- | Low -- °F
Precip. -- in
6:20 AM 7:32 PM
Waxing Crescent, 43% visible
Pressure 30.02 in
Visibility 10.0 miles
Clouds Scattered Clouds 800 ft
Scattered Clouds 1300 ft
Dew Point 48 °F
Humidity 77%
Rainfall 0.15 in
Snow Depth Not available.
UV 7 out of 12
Pollen 8.20 out of 12
Air Quality Not available.
Flu Activity Not available.
METAR KECS 011955Z AUTO 36010G17KT 10SM SCT008 SCT013 13/09 A3002 RMK AO2 P0004 LTG DSNT N

More Conditions Fewer Conditions

Pressure 30.02 in
Visibility 10.0 miles
Clouds Scattered Clouds 800 ft
Scattered Clouds 1300 ft
Dew Point 48 °F
Humidity 77%
Rainfall 0.15 in
Snow Depth Not available.
UV 7 out of 12
Pollen 8.20 out of 12
Air Quality Not available.
Flu Activity Not available.
METAR KECS 011955Z AUTO 36010G17KT 10SM SCT008 SCT013 13/09 A3002 RMK AO2 P0004 LTG DSNT N

More Conditions Fewer Conditions

10-Day Weather Forecast

Almanac

Astronomy

Sep. 01, 2014 Rise Set
Actual Time 6:20 AM MDT 7:32 PM MDT
Civil Twilight 5:51 AM MDT 8:02 PM MDT
Nautical Twilight 5:15 AM MDT 8:37 PM MDT
Astronomical Twilight 4:37 AM MDT 9:15 PM MDT
Moon 1:22 PM MDT 11:22 PM MDT
Length of Visible Light 14h 11m
Length of Day
13h 12m
Tomorrow will be 2m 55s shorter.
Waxing Crescent, 43% of the Moon is Illuminated
Today
Waxing Crescent
Sep 2
First Quarter
Sep 8
Full
Sep 15
Last Quarter
Sep 24
New

Today's Extremes

State Highs State Lows

Community

WunderPhotos

Upload Photos

1,749,394 photos uploaded!

WunderBlogs® & News

Nearby

Snow Depth

Station Depth Elevation
Cole Canyon 0 in 5910 ft
Reno Hill 0 in 8500 ft
Windy Peak 0 in 7900 ft
Casper Mountain 0 in 7850 ft
Hansen Sawmill 0 in 8360 ft

Earthquake Activity

City Distance Mag. Time & Date
No recent earthquake activity has been reported nearby.
Minimum magnitude displayed is 2.5.

Coastal Water Temperatures

Place Temperature
No Stations Reporting

Nearby Weather Stations